Terminal Aerodrome Forecast
Issued by NWS

Home | Current Version | Previous Version | Text Only | Print | Product List | Glossary On
Versions: 1 2 3 4 5 6 7 8 9 10 11 12 13 14 15 16 17 18 19 20 21 22
744
FTUS43 KILX 110535
TAFDEC
TAF
KDEC 110535Z 1106/1206 VRB05KT P6SM OVC060
     FM111000 36006KT P6SM SCT250
     FM120000 VRB03KT P6SM BKN080
     FM120500 VRB04KT 6SM -SN OVC040=

USA.gov is the U.S. government's official web portal to all federal, state and local government web resources and services.